Time;durP1;ratioP1;P1;durP2;ratioP2;P2;SDS_P1;SDS_P2;PMS_P1;PMS_P2;Temp;Humidity;BMP_temperature;BMP_pressure;BME280_temperature;BME280_humidity;BME280_pressure;Samples;Min_cycle;Max_cycle;Signal;HPM_P1;HPM_P2
2021/06/29 00:02:18;;;;;;;1.13;1.13;;;27.40;45.70;;;31.20;30.21;100920.59;5133876;28;20125;-51
2021/06/29 00:04:46;;;;;;;1.50;1.40;;;27.40;45.70;;;31.21;30.51;100925.00;5133899;28;20047;-51
2021/06/29 00:07:12;;;;;;;1.40;1.30;;;27.40;45.80;;;31.20;30.29;100916.03;5133973;28;20055;-54
2021/06/29 00:09:38;;;;;;;1.50;1.40;;;27.40;45.80;;;31.21;30.30;100927.72;5133659;28;20374;-51
2021/06/29 00:12:05;;;;;;;1.55;1.30;;;27.40;45.80;;;31.18;30.25;100919.94;5133947;28;20103;-51
2021/06/29 00:14:30;;;;;;;1.30;1.20;;;27.40;45.80;;;31.17;30.29;100919.09;5133729;28;20039;-51
2021/06/29 00:16:56;;;;;;;1.48;1.38;;;27.40;45.80;;;31.18;30.27;100920.75;5115448;28;20545;-52
2021/06/29 00:19:22;;;;;;;1.38;1.27;;;27.40;45.80;;;31.18;30.34;100925.34;5133590;28;20553;-52
2021/06/29 00:21:49;;;;;;;1.50;1.40;;;27.40;45.90;;;31.16;30.47;100925.50;5133674;28;20530;-52
2021/06/29 00:24:15;;;;;;;1.48;1.38;;;27.30;45.90;;;31.16;30.37;100933.59;5115101;28;20511;-54
2021/06/29 00:26:42;;;;;;;1.67;1.58;;;27.30;45.80;;;31.14;30.44;100926.66;5133609;28;20046;-48
2021/06/29 00:29:08;;;;;;;1.40;1.30;;;27.30;45.80;;;31.14;30.46;100934.75;5133523;28;20047;-48
2021/06/29 00:31:33;;;;;;;1.55;1.45;;;27.30;45.90;;;31.14;30.46;100932.91;5133646;28;20054;-51
2021/06/29 00:33:59;;;;;;;1.40;1.30;;;27.30;45.90;;;31.14;30.43;100937.44;5133609;28;20043;-51
2021/06/29 00:36:25;;;;;;;1.70;1.45;;;27.30;45.90;;;31.13;30.38;100931.22;5134019;28;20473;-50
2021/06/29 00:38:51;;;;;;;1.63;1.40;;;27.30;45.90;;;31.08;30.55;100936.25;5133391;28;20083;-52
2021/06/29 00:41:17;;;;;;;1.60;1.50;;;27.30;45.90;;;31.12;30.62;100939.47;5113010;28;20047;-51
2021/06/29 00:43:51;;;;;;;1.40;1.30;;;27.30;45.90;;;31.08;30.41;100941.66;5133345;28;20047;-50
2021/06/29 00:46:18;;;;;;;1.60;1.50;;;27.30;46.00;;;31.10;30.44;100945.03;5133668;27;20047;-50
2021/06/29 00:48:45;;;;;;;1.30;1.20;;;27.30;46.00;;;31.08;30.43;100940.81;5136978;28;20043;-51
2021/06/29 00:51:15;;;;;;;1.70;1.50;;;27.30;46.00;;;31.07;30.48;100942.66;5137473;28;20050;-51
2021/06/29 00:53:43;;;;;;;1.50;1.40;;;27.20;46.00;;;31.06;30.55;100938.28;5136975;28;20043;-50
2021/06/29 00:56:13;;;;;;;1.40;1.30;;;27.30;46.10;;;31.06;30.30;100948.19;5136809;28;20184;-53
2021/06/29 00:58:48;;;;;;;1.43;1.33;;;27.30;46.00;;;31.04;30.53;100945.69;5137562;28;20055;-51
2021/06/29 01:01:14;;;;;;;1.35;1.25;;;27.20;46.00;;;31.06;30.57;100942.81;5117547;28;20128;-53
2021/06/29 01:03:41;;;;;;;1.50;1.40;;;27.20;46.00;;;31.03;30.54;100933.19;5136652;28;20107;-53
2021/06/29 01:06:10;;;;;;;1.40;1.30;;;27.20;46.00;;;31.00;30.61;100923.53;5137205;28;20050;-51
2021/06/29 01:08:37;;;;;;;1.55;1.45;;;27.20;46.10;;;31.02;30.58;100926.06;5137047;28;20092;-51
2021/06/29 01:11:03;;;;;;;1.55;1.45;;;27.20;46.10;;;30.99;30.57;100921.00;5136631;28;20051;-49
2021/06/29 01:13:39;;;;;;;1.83;1.40;;;27.20;46.10;;;31.00;30.60;100933.50;5117971;28;20042;-49
2021/06/29 01:16:06;;;;;;;1.55;1.45;;;27.20;46.10;;;30.98;30.62;100924.72;5136693;28;20142;-50
2021/06/29 01:18:33;;;;;;;1.60;1.50;;;27.20;46.10;;;30.97;30.48;100917.63;5136810;28;20070;-54
2021/06/29 01:21:00;;;;;;;1.40;1.30;;;27.20;46.20;;;30.98;30.70;100927.41;5136430;28;20043;-51
2021/06/29 01:23:28;;;;;;;1.45;1.35;;;27.20;46.20;;;30.94;30.79;100912.50;5136818;28;20058;-49
2021/06/29 01:26:18;;;;;;;1.50;1.40;;;27.10;46.10;;;30.90;30.70;100911.97;5136779;28;20476;-54
2021/06/29 01:29:05;;;;;;;1.55;1.45;;;27.10;46.20;;;30.91;30.71;100910.97;5136320;28;20055;-48
2021/06/29 01:31:33;;;;;;;1.50;1.40;;;27.10;46.20;;;30.93;30.61;100918.94;5136725;28;20083;-51
2021/06/29 01:33:59;;;;;;;1.40;1.30;;;27.10;46.30;;;30.92;30.70;100912.66;5136165;28;20387;-52
2021/06/29 01:36:33;;;;;;;1.30;1.20;;;27.10;46.30;;;30.91;30.67;100902.88;5116329;28;20431;-54
2021/06/29 01:38:59;;;;;;;1.40;1.30;;;27.10;46.30;;;30.92;30.76;100899.16;5134383;28;20392;-54
2021/06/29 01:41:26;;;;;;;1.40;1.30;;;27.10;46.30;;;30.87;30.81;100890.69;5136264;28;20046;-52
2021/06/29 01:46:26;;;;;;;1.30;1.20;;;27.10;46.30;;;30.87;30.60;100893.38;5118755;28;20093;-51
2021/06/29 01:48:54;;;;;;;1.92;1.83;;;27.10;46.30;;;30.89;30.73;100895.94;5136129;28;20130;-54
2021/06/29 01:51:20;;;;;;;1.35;1.27;;;27.10;46.40;;;30.88;30.71;100887.00;5136088;28;20065;-55
2021/06/29 01:53:49;;;;;;;1.42;1.33;;;27.00;46.30;;;30.83;30.79;100881.22;5135913;28;20058;-54
2021/06/29 01:56:16;;;;;;;1.50;1.40;;;27.10;46.40;;;30.87;30.85;100888.00;5135747;28;20235;-51
2021/06/29 01:58:48;;;;;;;1.50;1.40;;;27.00;46.30;;;30.86;30.76;100880.91;5135762;27;20051;-49
2021/06/29 02:01:14;;;;;;;1.40;1.30;;;27.00;46.40;;;30.85;30.77;100885.44;5136513;28;20130;-54
2021/06/29 02:03:40;;;;;;;1.40;1.30;;;27.00;46.40;;;30.84;30.76;100883.78;5135663;28;20055;-52
2021/06/29 02:06:05;;;;;;;1.80;1.70;;;27.00;46.40;;;30.86;30.73;100886.31;5136061;28;20393;-51
2021/06/29 02:08:32;;;;;;;1.50;1.40;;;27.00;46.40;;;30.84;30.89;100878.38;5135743;28;20481;-52
2021/06/29 02:10:57;;;;;;;1.50;1.40;;;27.00;46.40;;;30.84;30.86;100881.06;5136109;28;20130;-47
2021/06/29 02:13:24;;;;;;;1.48;1.38;;;27.00;46.40;;;30.82;30.72;100872.31;5135544;28;20503;-54
2021/06/29 02:15:50;;;;;;;1.30;1.20;;;27.00;46.50;;;30.80;30.81;100871.59;5135693;28;20396;-51
2021/06/29 02:18:16;;;;;;;1.48;1.38;;;27.00;46.40;;;30.80;30.80;100871.59;5135692;28;20092;-53
2021/06/29 02:20:42;;;;;;;1.48;1.38;;;27.00;46.50;;;30.80;30.77;100871.59;5135956;28;20051;-51
2021/06/29 02:23:08;;;;;;;1.40;1.30;;;27.00;46.50;;;30.78;30.87;100859.28;5135790;28;20104;-52
2021/06/29 02:25:34;;;;;;;1.30;1.20;;;26.90;46.40;;;30.77;30.82;100861.13;5116258;28;20142;-51
2021/06/29 02:28:00;;;;;;;1.77;1.67;;;26.90;46.40;;;30.78;31.18;100868.22;5135469;28;20078;-52
2021/06/29 02:30:26;;;;;;;1.67;1.48;;;26.90;46.40;;;30.79;30.91;100867.22;5135447;28;20095;-52
2021/06/29 02:32:52;;;;;;;1.20;1.20;;;26.90;46.40;;;30.76;30.84;100862.13;5135409;28;20051;-54
2021/06/29 02:35:18;;;;;;;1.20;1.10;;;27.00;46.60;;;30.77;30.86;100863.84;5135611;28;20046;-51
2021/06/29 02:37:43;;;;;;;1.50;1.40;;;26.90;46.50;;;30.76;31.00;100864.84;5135286;28;20050;-52
2021/06/29 02:40:12;;;;;;;1.42;1.33;;;26.90;46.60;;;30.77;30.97;100865.66;5135306;28;20134;-49
2021/06/29 02:42:38;;;;;;;1.30;1.20;;;26.90;46.50;;;30.73;30.95;100851.66;5135539;28;20127;-49
2021/06/29 02:45:07;;;;;;;1.40;1.30;;;27.00;46.60;;;30.75;31.08;100854.19;5135291;28;20051;-51
2021/06/29 02:47:38;;;;;;;1.48;1.38;;;26.90;46.50;;;30.73;30.98;100850.81;5135442;28;20058;-47
2021/06/29 02:50:05;;;;;;;;;;;26.90;46.60;;;30.82;30.70;100845.31;5135721;28;20043;-52
2021/06/29 02:52:32;;;;;;;1.60;1.48;;;26.90;46.60;;;30.78;30.86;100843.91;5135191;28;20329;-47
2021/06/29 02:54:59;;;;;;;1.38;1.27;;;26.90;46.60;;;30.76;30.90;100851.34;5135103;28;20457;-46
2021/06/29 02:57:25;;;;;;;1.35;1.25;;;26.90;46.60;;;30.75;30.99;100846.09;5135023;28;20500;-48
2021/06/29 02:59:53;;;;;;;1.17;1.10;;;26.90;46.60;;;30.70;31.04;100837.63;5135623;28;20604;-52
2021/06/29 03:02:19;;;;;;;1.52;1.42;;;26.90;46.70;;;30.70;31.13;100843.88;5135285;28;20049;-46
2021/06/29 03:04:46;;;;;;;1.33;1.30;;;26.90;46.70;;;30.72;31.00;100847.25;5116574;28;20051;-51
2021/06/29 03:07:12;;;;;;;1.38;1.27;;;26.90;46.70;;;30.71;30.97;100850.97;5135159;28;20047;-51
2021/06/29 03:09:38;;;;;;;1.50;1.40;;;26.90;46.70;;;30.70;30.86;100843.88;5133931;27;20043;-52
2021/06/29 03:12:05;;;;;;;1.60;1.50;;;26.90;46.70;;;30.67;30.99;100846.88;5134549;28;20476;-52
2021/06/29 03:14:35;;;;;;;1.33;1.23;;;26.90;46.70;;;30.66;31.08;100840.66;5134584;28;20051;-45
2021/06/29 03:17:03;;;;;;;1.33;1.23;;;26.90;46.70;;;30.72;30.92;100849.09;5134746;28;20492;-50
2021/06/29 03:19:32;;;;;;;1.48;1.35;;;26.90;46.70;;;30.71;31.03;100847.44;5134382;28;20280;-48
2021/06/29 03:22:00;;;;;;;1.60;1.50;;;26.90;46.70;;;30.71;31.00;100839.34;5134262;28;20090;-47
2021/06/29 03:24:27;;;;;;;1.70;1.60;;;26.90;46.70;;;30.69;30.92;100841.31;5134557;28;20055;-51
2021/06/29 03:26:54;;;;;;;1.58;1.48;;;26.90;46.70;;;30.68;31.05;100840.50;5134365;28;20107;-50
2021/06/29 03:29:20;;;;;;;1.55;1.45;;;26.90;46.70;;;30.67;31.16;100841.50;5135044;28;20056;-47
2021/06/29 03:31:46;;;;;;;1.30;1.20;;;26.90;46.70;;;30.67;30.90;100854.97;5134551;28;20047;-46
2021/06/29 03:34:12;;;;;;;1.40;1.30;;;26.90;46.70;;;30.71;31.03;100867.16;5134624;28;20046;-49
2021/06/29 03:36:37;;;;;;;1.33;1.23;;;26.90;46.70;;;30.69;31.16;100863.78;5134282;28;20051;-46
2021/06/29 03:39:06;;;;;;;1.13;1.13;;;26.90;46.70;;;30.69;30.97;100871.88;5134301;28;20043;-47
2021/06/29 03:41:32;;;;;;;1.38;1.27;;;26.90;46.70;;;30.70;30.86;100878.97;5134277;28;20055;-47
2021/06/29 03:43:58;;;;;;;1.52;1.42;;;26.90;46.70;;;30.70;30.96;100884.34;5134346;28;20099;-52
2021/06/29 03:46:23;;;;;;;1.75;1.65;;;26.90;46.70;;;30.69;31.16;100884.50;5115921;28;20058;-51
2021/06/29 03:48:49;;;;;;;1.30;1.20;;;26.90;46.70;;;30.68;30.94;100883.66;5134200;28;20043;-50
2021/06/29 03:51:15;;;;;;;1.30;1.20;;;26.90;46.70;;;30.67;31.03;100880.13;5134521;28;20055;-48
2021/06/29 03:53:41;;;;;;;1.13;1.13;;;26.90;46.80;;;30.70;31.09;100891.63;5132768;28;20061;-48
2021/06/29 03:59:05;;;;;;;1.35;1.25;;;26.80;46.80;;;30.64;31.17;100885.84;5134319;28;20385;-51
2021/06/29 04:01:31;;;;;;;1.50;1.40;;;26.80;46.70;;;30.65;31.14;100887.53;5133333;28;20074;-53
2021/06/29 04:03:58;;;;;;;1.30;1.20;;;26.80;46.70;;;30.66;31.02;100889.22;5114853;28;20051;-48
2021/06/29 04:06:31;;;;;;;1.45;1.35;;;26.80;46.80;;;30.62;31.08;100881.59;5134072;28;20530;-52
2021/06/29 04:08:58;;;;;;;1.50;1.40;;;26.80;46.80;;;30.65;31.02;100884.00;5133826;28;20074;-51
2021/06/29 04:11:27;;;;;;;1.50;1.40;;;26.80;46.80;;;30.64;31.09;100882.31;5115961;28;20142;-48
2021/06/29 04:13:54;;;;;;;1.30;1.20;;;26.80;46.80;;;30.66;31.02;100891.09;5133710;28;20511;-50
2021/06/29 04:16:20;;;;;;;1.60;1.50;;;26.80;46.80;;;30.64;31.23;100887.72;5098222;28;20099;-48
2021/06/29 04:18:46;;;;;;;1.40;1.30;;;26.80;46.80;;;30.64;31.16;100879.63;5133714;28;20043;-50
2021/06/29 04:21:13;;;;;;;1.40;1.20;;;26.80;46.80;;;30.66;31.04;100891.09;5132611;27;20036;-48
2021/06/29 04:23:39;;;;;;;1.38;1.27;;;26.80;46.80;;;30.64;31.03;100888.53;5134052;28;20051;-50
2021/06/29 04:26:05;;;;;;;1.48;1.38;;;26.80;46.80;;;30.65;31.03;100894.78;5133732;28;20050;-50
2021/06/29 04:28:31;;;;;;;1.42;1.33;;;26.80;46.80;;;30.67;31.12;100890.06;5133476;28;20043;-51
2021/06/29 04:30:57;;;;;;;1.60;1.48;;;26.80;46.80;;;30.65;31.22;100882.13;5133636;28;20565;-47
2021/06/29 04:33:24;;;;;;;1.45;1.35;;;26.80;47.30;;;30.65;30.84;100887.53;5133675;28;20050;-52
2021/06/29 04:35:49;;;;;;;1.60;1.50;;;26.80;46.70;;;30.69;31.03;100887.22;5111431;28;20101;-50
2021/06/29 04:38:15;;;;;;;1.40;1.30;;;26.90;46.80;;;30.69;31.04;100884.50;5133447;28;20055;-50
2021/06/29 04:40:41;;;;;;;1.50;1.40;;;26.90;46.80;;;30.68;31.04;100875.56;5114753;28;20043;-53
2021/06/29 04:43:07;;;;;;;1.42;1.33;;;26.90;46.70;;;30.70;30.91;100870.84;5133448;28;20082;-49
2021/06/29 04:45:33;;;;;;;1.50;1.40;;;26.90;46.70;;;30.73;31.04;100867.84;5133099;28;20373;-51
2021/06/29 04:47:59;;;;;;;1.42;1.33;;;26.90;46.70;;;30.74;30.99;100869.56;5133728;28;21238;-50
2021/06/29 04:50:25;;;;;;;1.40;1.30;;;26.90;46.70;;;30.73;30.93;100864.31;5133470;28;20130;-47
2021/06/29 04:52:51;;;;;;;1.08;1.08;;;26.90;46.60;;;30.71;31.00;100863.63;5111157;28;20051;-51
2021/06/29 04:55:19;;;;;;;1.55;1.45;;;26.90;46.60;;;30.75;30.98;100865.81;5133341;28;20055;-51
2021/06/29 04:57:46;;;;;;;1.48;1.38;;;26.90;46.60;;;30.75;30.90;100867.69;5133227;28;20047;-49
2021/06/29 05:00:16;;;;;;;1.50;1.40;;;26.90;46.60;;;30.74;30.98;100868.69;5133133;28;20039;-49
2021/06/29 05:02:42;;;;;;;1.42;1.33;;;26.90;46.60;;;30.78;30.83;100879.00;5133766;28;20095;-49
2021/06/29 05:05:09;;;;;;;1.50;1.40;;;26.90;46.60;;;30.78;30.88;100888.97;5133160;28;20373;-50
2021/06/29 05:07:39;;;;;;;1.63;1.52;;;26.90;46.60;;;30.75;30.92;100886.59;5133384;28;20047;-49
2021/06/29 05:10:09;;;;;;;1.50;1.40;;;26.90;46.50;;;30.75;30.78;100881.19;5132941;28;20523;-50
2021/06/29 05:12:36;;;;;;;1.40;1.30;;;26.90;46.50;;;30.78;30.80;100876.31;5133164;28;20054;-49
2021/06/29 05:15:06;;;;;;;1.90;1.50;;;26.90;46.50;;;30.79;30.92;100883.41;5132962;28;20096;-45
2021/06/29 05:17:32;;;;;;;1.40;1.30;;;26.90;46.50;;;30.80;30.86;100885.09;5132910;28;20048;-50
2021/06/29 05:19:58;;;;;;;1.63;1.52;;;26.90;46.50;;;30.80;30.89;100878.84;5133203;28;20077;-51
2021/06/29 05:22:23;;;;;;;1.33;1.23;;;27.00;46.60;;;30.80;30.96;100871.59;5115188;28;20134;-50
2021/06/29 05:24:50;;;;;;;1.60;1.50;;;27.00;46.50;;;30.82;31.02;100879.53;5132877;28;20047;-52
2021/06/29 05:27:16;;;;;;;1.70;1.60;;;27.00;46.50;;;30.82;30.83;100872.31;5132820;28;20092;-48
2021/06/29 05:29:42;;;;;;;1.10;1.10;;;27.00;46.50;;;30.80;30.87;100868.06;5132909;28;20055;-46
2021/06/29 05:32:08;;;;;;;1.48;1.38;;;27.00;46.50;;;30.83;30.79;100871.28;5132578;27;20453;-51
2021/06/29 05:34:34;;;;;;;1.60;1.50;;;27.00;46.40;;;30.87;30.91;100881.75;5116767;28;20071;-51
2021/06/29 05:37:00;;;;;;;1.38;1.27;;;27.00;46.40;;;30.85;30.84;100882.75;5136201;28;20047;-49
2021/06/29 05:39:26;;;;;;;1.30;1.20;;;27.00;46.40;;;30.87;30.99;100879.91;5136172;28;20042;-51
2021/06/29 05:41:52;;;;;;;1.40;1.30;;;27.10;46.40;;;30.90;30.67;100882.28;5099819;28;20048;-46
2021/06/29 05:44:18;;;;;;;1.80;1.70;;;27.10;46.30;;;30.92;30.82;100884.81;5136130;28;20043;-53
2021/06/29 05:46:43;;;;;;;1.55;1.45;;;27.10;46.30;;;30.98;30.61;100895.00;5136613;28;20051;-47
2021/06/29 05:49:12;;;;;;;1.45;1.35;;;27.10;46.20;;;31.00;30.78;100895.69;5136104;28;20051;-50
2021/06/29 05:51:39;;;;;;;1.42;1.33;;;27.20;46.30;;;31.01;30.65;100892.84;5135898;28;20122;-50
2021/06/29 05:54:05;;;;;;;1.30;1.20;;;27.20;46.20;;;31.02;30.69;100891.84;5135767;28;20084;-46
2021/06/29 05:56:32;;;;;;;1.50;1.40;;;27.20;46.10;;;31.06;30.62;100892.34;5136302;28;20051;-47
2021/06/29 05:58:57;;;;;;;1.70;1.40;;;27.20;46.10;;;31.10;30.58;100893.72;5136232;28;20073;-52
2021/06/29 06:01:23;;;;;;;1.50;1.40;;;27.30;46.10;;;31.12;30.47;100897.09;5135810;28;20047;-48
2021/06/29 06:03:49;;;;;;;1.30;1.20;;;27.30;46.00;;;31.15;30.40;100890.53;5135883;28;20047;-46
2021/06/29 06:06:15;;;;;;;1.60;1.50;;;27.30;45.90;;;31.15;30.42;100885.97;5135763;28;20054;-47
2021/06/29 06:08:40;;;;;;;1.55;1.45;;;27.30;45.90;;;31.18;30.48;100893.75;5135624;28;20043;-50
2021/06/29 06:11:06;;;;;;;1.40;1.30;;;27.30;45.80;;;31.21;30.26;100892.59;5135794;28;20416;-50
2021/06/29 06:13:32;;;;;;;1.42;1.33;;;27.30;45.80;;;31.20;30.15;100890.91;5135650;28;20051;-51
2021/06/29 06:15:58;;;;;;;1.33;1.23;;;27.40;45.80;;;31.25;30.25;100895.81;5135899;28;20043;-49
2021/06/29 06:18:24;;;;;;;1.50;1.40;;;27.40;45.80;;;31.26;30.28;100890.25;5135504;28;20047;-49
2021/06/29 06:20:51;;;;;;;1.50;1.40;;;27.40;45.80;;;31.26;30.17;100892.09;5135709;28;20050;-52
2021/06/29 06:23:17;;;;;;;1.40;1.30;;;27.40;45.70;;;31.29;30.09;100892.63;5135549;28;20055;-50
2021/06/29 06:25:43;;;;;;;1.30;1.20;;;27.40;45.70;;;31.32;30.16;100884.19;5135353;28;20058;-51
2021/06/29 06:28:09;;;;;;;1.40;1.30;;;27.40;45.70;;;31.32;30.15;100880.63;5135652;28;20051;-48
2021/06/29 06:30:37;;;;;;;1.48;1.38;;;27.40;45.60;;;31.38;30.02;100883.53;5135377;28;20047;-53
2021/06/29 06:33:03;;;;;;;1.48;1.38;;;27.50;45.70;;;31.38;29.90;100878.13;5135428;28;20054;-52
2021/06/29 06:35:29;;;;;;;1.23;1.13;;;27.50;45.60;;;31.41;30.09;100871.56;5135821;28;20051;-51
2021/06/29 06:37:55;;;;;;;1.50;1.40;;;27.50;45.50;;;31.50;29.97;100872.44;5135322;28;20043;-52
2021/06/29 06:40:21;;;;;;;1.40;1.30;;;27.60;45.40;;;31.54;29.78;100865.69;5135368;28;20057;-48
2021/06/29 06:42:47;;;;;;;1.40;1.30;;;27.70;45.40;;;31.57;29.77;100871.66;5135211;28;20077;-52
2021/06/29 06:45:15;;;;;;;1.40;1.30;;;27.70;45.30;;;31.63;29.78;100872.84;5115005;28;20944;-51
2021/06/29 06:47:41;;;;;;;1.42;1.33;;;27.70;45.20;;;31.67;29.50;100879.59;5135451;28;20380;-52
2021/06/29 06:50:08;;;;;;;1.38;1.27;;;27.70;45.20;;;31.67;29.67;100874.19;5135383;28;20095;-51
2021/06/29 06:52:35;;;;;;;1.45;1.35;;;27.80;45.20;;;31.73;29.68;100878.09;5134984;28;20039;-47
2021/06/29 06:55:06;;;;;;;1.33;1.23;;;27.80;45.10;;;31.77;29.76;100882.97;5116379;28;20485;-50
2021/06/29 06:57:33;;;;;;;1.45;1.35;;;27.80;45.10;;;31.80;29.44;100872.88;5116861;28;20048;-51
2021/06/29 06:59:58;;;;;;;1.40;1.30;;;27.80;45.00;;;31.85;29.29;100881.31;5134902;28;20458;-50
2021/06/29 07:02:24;;;;;;;1.25;1.15;;;27.80;44.90;;;31.84;29.51;100877.75;5135144;28;20047;-50
2021/06/29 07:04:51;;;;;;;1.15;1.15;;;27.90;45.00;;;31.89;29.34;100883.53;5134835;28;20047;-50
2021/06/29 07:07:17;;;;;;;1.20;1.10;;;27.90;45.00;;;31.91;29.14;100889.59;5135070;28;20059;-45
2021/06/29 07:09:45;;;;;;;1.40;1.30;;;27.90;44.90;;;31.92;29.28;100880.47;5134849;28;20047;-53
2021/06/29 07:12:11;;;;;;;1.30;1.20;;;27.90;44.90;;;31.91;29.16;100881.50;5116166;28;20484;-48
2021/06/29 07:14:36;;;;;;;1.40;1.30;;;27.90;44.90;;;31.98;29.07;100884.38;5134586;28;20061;-51
2021/06/29 07:17:03;;;;;;;1.27;1.17;;;28.00;44.90;;;32.01;29.41;100875.94;5134825;28;20047;-50
2021/06/29 07:19:29;;;;;;;1.40;1.30;;;28.00;44.70;;;32.03;29.38;100881.19;5134447;28;20404;-50
2021/06/29 07:21:54;;;;;;;1.50;1.40;;;28.10;44.70;;;32.10;29.25;100876.81;5134390;28;20047;-50
2021/06/29 07:24:20;;;;;;;1.10;1.10;;;28.10;44.60;;;32.15;29.14;100873.59;5134575;28;20893;-48
2021/06/29 07:26:46;;;;;;;1.40;1.30;;;28.20;44.50;;;32.21;28.70;100870.19;5134192;28;20062;-54
2021/06/29 07:29:12;;;;;;;1.45;1.35;;;28.20;44.40;;;32.25;29.03;100872.41;5134340;28;20043;-48
2021/06/29 07:31:38;;;;;;;1.60;1.50;;;28.30;44.40;;;32.30;28.68;100870.03;5134418;28;20043;-50
2021/06/29 07:34:03;;;;;;;1.30;1.20;;;28.30;44.30;;;32.32;28.69;100870.69;5134279;28;20050;-50
2021/06/29 07:36:29;;;;;;;1.40;1.30;;;28.30;44.20;;;32.35;28.68;100874.94;5115679;28;20050;-50
2021/06/29 07:38:56;;;;;;;1.33;1.23;;;28.40;44.20;;;32.44;28.86;100881.19;5134268;28;20047;-53
2021/06/29 07:41:22;;;;;;;1.88;1.58;;;28.40;44.10;;;32.52;28.78;100892.00;5134129;28;20049;-54
2021/06/29 07:43:48;;;;;;;1.65;1.10;;;28.50;43.90;;;32.64;28.75;100887.09;5134320;28;20054;-50
2021/06/29 07:46:14;;;;;;;1.30;1.20;;;28.60;43.70;;;32.73;28.18;100883.38;5134059;28;20396;-50
2021/06/29 07:48:40;;;;;;;2.50;1.40;;;28.80;43.60;;;32.81;28.05;100883.34;5134131;28;20050;-49
2021/06/29 07:51:08;;;;;;;1.33;1.27;;;28.80;43.50;;;32.85;28.01;100867.59;5134730;28;20042;-51
2021/06/29 07:53:34;;;;;;;1.60;1.50;;;28.80;43.40;;;32.91;27.97;100863.34;5134173;28;20043;-50
2021/06/29 07:56:00;;;;;;;1.58;1.20;;;28.90;43.40;;;32.84;28.11;100855.06;5133626;27;20089;-50
2021/06/29 07:58:27;;;;;;;1.30;1.20;;;28.90;43.40;;;32.87;28.15;100863.69;5134314;28;20515;-52
2021/06/29 08:00:53;;;;;;;1.45;1.35;;;28.80;43.40;;;32.84;28.32;100860.47;5133974;28;20054;-53
2021/06/29 08:03:18;;;;;;;1.30;1.20;;;28.80;43.40;;;32.87;28.19;100862.84;5112298;28;20048;-49
2021/06/29 08:05:44;;;;;;;1.40;1.30;;;28.80;43.40;;;32.87;28.24;100863.69;5133752;28;20039;-49
2021/06/29 08:08:10;;;;;;;1.00;1.00;;;28.80;43.30;;;32.87;28.16;100854.72;5134062;27;20048;-53
2021/06/29 08:10:36;;;;;;;1.30;1.20;;;28.90;43.40;;;32.88;28.12;100856.41;5133812;28;20156;-49
2021/06/29 08:13:04;;;;;;;1.30;1.20;;;28.90;43.30;;;32.86;27.99;100861.16;5133829;28;20039;-50
2021/06/29 08:15:30;;;;;;;1.30;1.20;;;28.90;43.30;;;32.84;28.15;100861.31;5133683;28;20051;-49
2021/06/29 08:17:57;;;;;;;1.45;1.33;;;28.90;43.30;;;32.86;28.00;100858.44;5133654;28;20154;-55
2021/06/29 08:20:23;;;;;;;1.20;1.15;;;28.90;43.20;;;32.90;28.01;100864.38;5112570;28;20086;-53
2021/06/29 08:22:52;;;;;;;1.48;1.38;;;29.00;43.20;;;32.89;28.16;100858.09;5134004;28;20496;-53
2021/06/29 08:25:18;;;;;;;1.50;1.40;;;29.00;43.10;;;32.93;28.13;100864.00;5110931;28;20051;-52
2021/06/29 08:27:44;;;;;;;1.17;1.08;;;29.00;43.10;;;32.94;27.96;100863.81;5133418;28;20082;-50
2021/06/29 08:30:11;;;;;;;1.30;1.20;;;29.00;43.00;;;32.96;27.68;100864.53;5113014;28;20131;-47
2021/06/29 08:32:38;;;;;;;1.65;1.55;;;29.00;43.00;;;32.95;27.83;100867.41;5115160;28;20080;-47
2021/06/29 08:35:09;;;;;;;1.50;1.40;;;29.00;43.00;;;32.93;27.72;100867.56;5133389;28;20042;-48
2021/06/29 08:37:37;;;;;;;1.35;1.25;;;29.00;43.00;;;32.94;28.07;100869.25;5133483;28;20080;-48
2021/06/29 08:40:07;;;;;;;1.30;1.20;;;29.00;43.10;;;32.91;28.05;100864.16;5114572;28;20051;-47
2021/06/29 08:42:36;;;;;;;1.45;1.35;;;29.00;43.10;;;32.87;28.11;100857.44;5133641;28;20084;-53
2021/06/29 08:45:08;;;;;;;1.20;1.10;;;29.00;43.00;;;32.87;27.75;100865.56;5133370;28;20537;-48
2021/06/29 08:47:37;;;;;;;1.45;1.35;;;29.00;43.00;;;32.86;27.76;100862.00;5133389;28;20043;-50
2021/06/29 08:50:06;;;;;;;1.30;1.20;;;29.00;43.10;;;32.85;27.86;100863.03;5115179;28;20093;-52
2021/06/29 08:52:33;;;;;;;1.55;1.40;;;29.00;43.00;;;32.83;28.12;100862.34;5133639;28;20046;-48
2021/06/29 08:54:59;;;;;;;1.17;1.10;;;29.00;43.10;;;32.80;28.17;100853.75;5133310;28;20134;-54
2021/06/29 08:57:25;;;;;;;1.10;1.00;;;28.90;43.00;;;32.78;28.09;100853.03;5133443;28;20050;-52
2021/06/29 08:59:52;;;;;;;1.20;1.10;;;28.90;43.10;;;32.78;28.13;100850.34;5133167;28;20051;-52
2021/06/29 09:02:18;;;;;;;1.38;1.27;;;28.90;43.10;;;32.75;27.89;100858.84;5133199;28;20130;-51
2021/06/29 09:04:58;;;;;;;1.42;1.33;;;29.00;43.20;;;32.71;27.84;100846.66;5114561;28;20039;-51
2021/06/29 09:07:27;;;;;;;1.10;1.10;;;28.90;43.20;;;32.71;28.24;100846.66;5114560;28;20050;-51
2021/06/29 09:09:59;;;;;;;1.30;1.20;;;28.90;43.20;;;32.65;28.37;100853.59;5136651;28;20416;-52
2021/06/29 09:12:47;;;;;;;1.30;1.20;;;28.90;43.20;;;32.65;28.28;100864.44;5115256;28;20056;-50
2021/06/29 09:15:32;;;;;;;1.52;1.42;;;28.90;43.20;;;32.63;28.23;100872.72;5116782;28;20095;-49
2021/06/29 09:18:06;;;;;;;1.40;1.30;;;28.90;43.20;;;32.62;28.41;100872.91;5136561;28;20055;-53
2021/06/29 09:20:42;;;;;;;1.30;1.20;;;28.90;43.20;;;32.63;28.55;100872.72;5136155;28;20396;-49
2021/06/29 09:23:22;;;;;;;1.42;1.13;;;28.90;43.10;;;32.61;28.43;100857.63;5136746;28;20079;-49
2021/06/29 09:25:53;;;;;;;1.02;1.02;;;28.90;43.10;;;32.66;28.00;100866.97;5117205;28;20485;-51
2021/06/29 09:28:26;;;;;;;1.23;1.13;;;28.90;43.20;;;32.66;28.20;100864.28;5136679;28;20491;-47
2021/06/29 09:30:58;;;;;;;1.33;1.23;;;29.00;43.00;;;32.67;28.04;100863.22;5136637;28;20150;-51
2021/06/29 09:33:31;;;;;;;1.50;1.38;;;29.00;43.00;;;32.70;28.06;100862.06;5136673;28;20043;-47
2021/06/29 09:36:03;;;;;;;1.27;1.17;;;29.00;42.90;;;32.77;27.99;100862.19;5136154;28;20039;-46
2021/06/29 09:38:37;;;;;;;1.40;1.30;;;29.10;42.90;;;32.80;28.13;100854.56;5136437;28;20054;-50
2021/06/29 09:41:10;;;;;;;1.30;1.20;;;29.10;42.80;;;32.82;28.01;100859.81;5136279;28;20160;-46
2021/06/29 09:43:42;;;;;;;1.73;1.20;;;29.10;42.80;;;32.84;28.11;100865.91;5136469;28;20058;-48
2021/06/29 09:46:12;;;;;;;1.92;1.20;;;29.20;42.80;;;32.88;27.92;100867.25;5135974;28;20082;-46
2021/06/29 09:48:48;;;;;;;1.40;1.30;;;29.10;42.70;;;32.89;28.09;100865.38;5118005;28;20051;-51
2021/06/29 09:51:28;;;;;;;1.33;1.20;;;29.20;42.70;;;32.89;27.65;100868.94;5136492;28;20388;-50
2021/06/29 09:53:58;;;;;;;1.40;1.30;;;29.20;42.70;;;32.95;28.01;100873.66;5135945;28;20043;-53
2021/06/29 09:56:38;;;;;;;1.45;1.35;;;29.20;42.60;;;32.94;27.63;100865.69;5135949;28;20117;-49
2021/06/29 09:59:11;;;;;;;1.23;1.13;;;29.20;42.60;;;32.94;27.66;100866.53;5136054;28;20047;-50
2021/06/29 10:01:37;;;;;;;1.02;1.02;;;29.20;42.60;;;32.96;27.83;100869.94;5136211;28;20055;-52
2021/06/29 10:04:04;;;;;;;1.30;1.20;;;29.20;42.60;;;32.94;27.60;100871.13;5117376;28;20143;-46
2021/06/29 10:06:33;;;;;;;1.25;1.17;;;29.20;42.60;;;32.95;27.57;100875.53;5136010;28;20137;-52
2021/06/29 10:09:08;;;;;;;1.13;1.13;;;29.20;42.60;;;32.91;27.99;100877.72;5135730;28;20051;-53
2021/06/29 10:11:54;;;;;;;1.20;1.10;;;29.20;42.60;;;32.90;27.77;100872.50;5114797;28;20044;-52
2021/06/29 10:14:22;;;;;;;1.38;1.27;;;29.20;42.60;;;32.91;27.64;100877.72;5135972;28;20047;-53
2021/06/29 10:16:50;;;;;;;1.30;1.20;;;29.20;42.60;;;32.90;27.71;100883.34;5132407;28;20047;-53
2021/06/29 10:22:00;;;;;;;1.40;1.30;;;29.20;42.70;;;32.86;27.77;100871.97;5135246;28;20134;-54
2021/06/29 10:24:29;;;;;;;1.30;1.20;;;29.20;42.70;;;32.86;27.78;100872.84;5135842;28;20082;-49